createdAt,value
2023-01-26T00:00:15.095Z,-0.2
2023-01-26T00:01:13.843Z,-0.3
2023-01-26T00:02:15.407Z,-0.3
2023-01-26T00:03:13.880Z,-0.2
2023-01-26T00:04:15.907Z,-0.5
2023-01-26T00:05:13.175Z,-0.5
2023-01-26T00:06:15.213Z,-0.5
2023-01-26T00:07:13.795Z,-0.5
2023-01-26T00:08:15.421Z,-0.5
2023-01-26T00:09:13.039Z,-0.6
2023-01-26T00:10:16.114Z,-0.5
2023-01-26T00:11:14.005Z,-0.4
2023-01-26T00:12:16.436Z,-0.4
2023-01-26T00:13:14.400Z,-0.5
2023-01-26T00:14:17.132Z,-0.5
2023-01-26T00:15:16.906Z,-0.2
2023-01-26T00:16:17.433Z,-0.2
2023-01-26T00:17:15.323Z,-0.3
2023-01-26T00:18:17.040Z,-0.3
2023-01-26T00:19:15.345Z,-0.5
2023-01-26T00:20:18.432Z,-0.7
2023-01-26T00:21:15.293Z,-0.7
2023-01-26T00:22:19.678Z,-0.7
2023-01-26T00:23:15.549Z,-0.7
2023-01-26T00:24:17.969Z,-0.7
2023-01-26T00:25:17.166Z,-0.8
2023-01-26T00:26:17.793Z,-0.7
2023-01-26T00:27:13.630Z,-0.7
2023-01-26T00:28:17.002Z,-0.7
2023-01-26T00:29:13.724Z,-0.6
2023-01-26T00:30:17.609Z,-0.6
2023-01-26T00:31:13.939Z,-0.5
2023-01-26T00:32:18.924Z,-0.6
2023-01-26T00:33:13.936Z,-0.6
2023-01-26T00:34:23.500Z,-0.6
2023-01-26T00:35:18.247Z,-0.6
2023-01-26T00:36:23.453Z,-0.7
2023-01-26T00:37:14.143Z,-0.6
2023-01-26T00:38:21.786Z,-0.7
2023-01-26T00:39:14.232Z,-0.8
2023-01-26T00:40:32.072Z,-0.8
2023-01-26T00:41:14.344Z,-0.9
2023-01-26T00:42:31.692Z,-0.9
2023-01-26T00:43:14.468Z,-0.8
2023-01-26T00:44:31.959Z,-0.9
2023-01-26T00:45:15.189Z,-0.8
2023-01-26T00:46:32.660Z,-0.7
2023-01-26T00:47:14.695Z,-0.8
2023-01-26T00:48:32.265Z,-0.9
2023-01-26T00:49:14.796Z,-0.9
2023-01-26T00:50:32.306Z,-0.9
2023-01-26T00:51:14.911Z,-0.8
2023-01-26T00:52:35.270Z,-0.7
2023-01-26T00:53:15.103Z,-0.6
2023-01-26T00:54:35.604Z,-0.6
2023-01-26T00:55:26.775Z,-0.7
2023-01-26T00:56:35.522Z,-0.7
2023-01-26T00:57:15.226Z,-0.8
2023-01-26T00:58:34.917Z,-0.6
2023-01-26T00:59:15.376Z,-0.6
2023-01-26T01:00:35.800Z,-0.7
2023-01-26T01:01:15.509Z,-0.7
2023-01-26T01:02:35.299Z,-0.7
2023-01-26T01:03:15.561Z,-0.7
2023-01-26T01:04:37.030Z,-0.6
2023-01-26T01:05:24.933Z,-0.5
2023-01-26T01:06:35.124Z,-0.6
2023-01-26T01:07:15.770Z,-0.7
2023-01-26T01:08:34.871Z,-0.6
2023-01-26T01:09:15.901Z,-0.7
2023-01-26T01:10:35.171Z,-0.7
2023-01-26T01:11:16.027Z,-0.7
2023-01-26T01:12:35.154Z,-0.8
2023-01-26T01:13:16.096Z,-0.7
2023-01-26T01:14:36.705Z,-0.7
2023-01-26T01:15:27.012Z,-0.7
2023-01-26T01:16:34.758Z,-0.6
2023-01-26T01:17:16.354Z,-0.7
2023-01-26T01:18:36.823Z,-0.8
2023-01-26T01:19:16.443Z,-0.8
2023-01-26T01:20:34.670Z,-0.9
2023-01-26T01:21:16.596Z,-0.7
2023-01-26T01:22:36.544Z,-0.6
2023-01-26T01:23:16.694Z,-0.5
2023-01-26T01:24:37.081Z,-0.6
2023-01-26T01:25:26.888Z,-0.7
2023-01-26T01:26:35.376Z,-0.7
2023-01-26T01:27:16.951Z,-0.7
2023-01-26T01:28:37.174Z,-0.9
2023-01-26T01:29:17.106Z,-0.9
2023-01-26T01:30:36.699Z,-0.9
2023-01-26T01:31:17.234Z,-0.9
2023-01-26T01:32:36.054Z,-0.9
2023-01-26T01:33:17.303Z,-0.8
2023-01-26T01:34:37.773Z,-0.9
2023-01-26T01:35:24.133Z,-0.8
2023-01-26T01:36:37.085Z,-0.8
2023-01-26T01:37:17.503Z,-0.7
2023-01-26T01:38:36.734Z,-0.8
2023-01-26T01:39:17.625Z,-0.7
2023-01-26T01:40:17.891Z,-0.7
2023-01-26T01:41:17.694Z,-0.8
2023-01-26T01:42:40.711Z,-0.8
2023-01-26T01:43:18.614Z,-0.9
2023-01-26T01:44:40.600Z,-1
2023-01-26T01:45:22.929Z,-1
2023-01-26T01:46:18.258Z,-0.9
2023-01-26T01:47:18.083Z,-0.9
2023-01-26T01:48:18.132Z,-0.8
2023-01-26T01:49:20.263Z,-0.9
2023-01-26T01:50:41.476Z,-0.8
2023-01-26T01:51:18.283Z,-0.9
2023-01-26T01:52:20.179Z,-1
2023-01-26T01:53:18.415Z,-1
2023-01-26T01:54:18.715Z,-0.8
2023-01-26T01:55:22.396Z,-0.6
2023-01-26T01:56:18.552Z,-0.5
2023-01-26T01:57:18.593Z,-0.8
2023-01-26T01:58:21.147Z,-0.9
2023-01-26T01:59:18.734Z,-0.9
2023-01-26T02:00:18.829Z,-0.9
2023-01-26T02:01:28.331Z,-0.8
2023-01-26T02:02:19.008Z,-0.8
2023-01-26T02:03:18.975Z,-0.8
2023-01-26T02:04:27.770Z,-0.8
2023-01-26T02:05:19.079Z,-0.9
2023-01-26T02:06:19.116Z,-0.9
2023-01-26T02:07:32.491Z,-0.7
2023-01-26T02:08:19.275Z,-0.8
2023-01-26T02:09:19.351Z,-0.9
2023-01-26T02:10:35.639Z,-1
2023-01-26T02:11:19.464Z,-1
2023-01-26T02:12:19.621Z,-0.9
2023-01-26T02:13:51.596Z,-0.9
2023-01-26T02:14:19.668Z,-0.9
2023-01-26T02:15:19.747Z,-0.9
2023-01-26T02:16:43.164Z,-0.9
2023-01-26T02:17:19.838Z,-0.9
2023-01-26T02:18:19.885Z,-0.8
2023-01-26T02:19:46.650Z,-0.7
2023-01-26T02:20:19.986Z,-0.9
2023-01-26T02:21:20.176Z,-0.9
2023-01-26T02:22:55.628Z,-0.9
2023-01-26T02:23:29.151Z,-0.7
2023-01-26T02:24:20.257Z,-0.6
2023-01-26T02:25:26.810Z,-0.5
2023-01-26T02:26:28.224Z,-0.7
2023-01-26T02:27:29.312Z,-0.8
2023-01-26T02:28:20.737Z,-0.8
2023-01-26T02:29:40.108Z,-0.7
2023-01-26T02:30:20.499Z,-0.7
2023-01-26T02:31:43.267Z,-0.7
2023-01-26T02:32:27.809Z,-0.8
2023-01-26T02:33:44.986Z,-0.7
2023-01-26T02:34:20.722Z,-0.6
2023-01-26T02:35:38.923Z,-0.6
2023-01-26T02:36:28.195Z,-0.7
2023-01-26T02:37:20.944Z,-0.7
2023-01-26T02:39:30.720Z,-0.7
2023-01-26T02:39:30.851Z,-0.7
2023-01-26T02:40:21.056Z,-0.9
2023-01-26T02:42:20.748Z,-1
2023-01-26T02:43:02.323Z,-1
2023-01-26T02:43:21.222Z,-0.9
2023-01-26T02:46:09.971Z,-0.8
2023-01-26T02:46:21.522Z,-0.8
2023-01-26T02:47:21.508Z,-0.9
2023-01-26T02:48:21.603Z,-1
2023-01-26T02:49:21.618Z,-1.1
2023-01-26T02:50:21.660Z,-1.1
2023-01-26T02:51:21.742Z,-1.1
2023-01-26T02:52:32.106Z,-1
2023-01-26T02:53:21.862Z,-0.8
2023-01-26T02:54:26.507Z,-0.9
2023-01-26T02:55:38.281Z,-0.9
2023-01-26T02:56:37.730Z,-1
2023-01-26T02:57:22.047Z,-1
2023-01-26T02:59:04.316Z,-0.9
2023-01-26T02:59:22.138Z,-0.9
2023-01-26T03:00:27.295Z,-1
2023-01-26T03:01:38.006Z,-1
2023-01-26T03:02:27.574Z,-1
2023-01-26T03:03:22.378Z,-1.1
2023-01-26T03:04:38.816Z,-1.1
2023-01-26T03:05:22.552Z,-0.9
2023-01-26T03:06:37.200Z,-0.9
2023-01-26T03:07:38.156Z,-0.8
2023-01-26T03:08:34.530Z,-0.8
2023-01-26T03:09:22.759Z,-0.9
2023-01-26T03:10:40.920Z,-1
2023-01-26T03:11:22.898Z,-1
2023-01-26T03:12:35.181Z,-1
2023-01-26T03:13:40.609Z,-1.1
2023-01-26T03:14:37.199Z,-1
2023-01-26T03:15:23.079Z,-1
2023-01-26T03:16:40.727Z,-1.1
2023-01-26T03:17:23.198Z,-1
2023-01-26T03:18:33.168Z,-1.1
2023-01-26T03:19:42.877Z,-1
2023-01-26T03:20:33.360Z,-0.9
2023-01-26T03:21:23.540Z,-0.9
2023-01-26T03:22:41.658Z,-1
2023-01-26T03:23:23.576Z,-0.9
2023-01-26T03:24:43.123Z,-0.9
2023-01-26T03:25:42.502Z,-1
2023-01-26T03:26:42.362Z,-1
2023-01-26T03:27:23.757Z,-1
2023-01-26T03:28:54.049Z,-1
2023-01-26T03:29:23.864Z,-1.1
2023-01-26T03:30:46.533Z,-1
2023-01-26T03:31:43.679Z,-1
2023-01-26T03:32:46.274Z,-1
2023-01-26T03:33:24.118Z,-1
2023-01-26T03:34:46.358Z,-1
2023-01-26T03:35:24.237Z,-0.8
2023-01-26T03:36:24.293Z,-0.8
2023-01-26T03:37:44.819Z,-0.7
2023-01-26T03:38:24.429Z,-0.9
2023-01-26T03:39:24.528Z,-1.1
2023-01-26T03:40:44.802Z,-1.2
2023-01-26T03:41:24.578Z,-1.3
2023-01-26T03:42:24.670Z,-1.5
2023-01-26T03:43:44.381Z,-1.4
2023-01-26T03:44:24.777Z,-1.2
2023-01-26T03:45:24.859Z,-1.2
2023-01-26T03:46:58.009Z,-1.2
2023-01-26T03:47:24.952Z,-1.1
2023-01-26T03:48:24.995Z,-1.1
2023-01-26T03:49:44.810Z,-1
2023-01-26T03:50:25.139Z,-1
2023-01-26T03:51:25.157Z,-1.1
2023-01-26T03:52:50.380Z,-1.1
2023-01-26T03:53:25.305Z,-1
2023-01-26T03:54:25.328Z,-1
2023-01-26T03:55:47.321Z,-1
2023-01-26T03:56:25.426Z,-0.9
2023-01-26T03:57:25.507Z,-0.8
2023-01-26T03:58:51.975Z,-0.8
2023-01-26T03:59:25.632Z,-0.8
2023-01-26T04:00:25.748Z,-0.7
2023-01-26T04:01:51.449Z,-0.6
2023-01-26T04:02:25.849Z,-0.6
2023-01-26T04:03:25.860Z,-0.7
2023-01-26T04:04:52.803Z,-0.6
2023-01-26T04:05:25.974Z,-0.6
2023-01-26T04:06:26.012Z,-0.7
2023-01-26T04:07:52.795Z,-0.6
2023-01-26T04:08:26.113Z,-0.5
2023-01-26T04:09:26.216Z,-0.6
2023-01-26T04:10:50.989Z,-0.6
2023-01-26T04:11:26.315Z,-0.8
2023-01-26T04:12:26.347Z,-0.8
2023-01-26T04:13:52.320Z,-0.9
2023-01-26T04:14:26.465Z,-0.7
2023-01-26T04:15:26.555Z,-0.6
2023-01-26T04:16:50.612Z,-0.6
2023-01-26T04:17:26.746Z,-0.7
2023-01-26T04:18:26.834Z,-0.8
2023-01-26T04:19:53.210Z,-0.8
2023-01-26T04:20:26.880Z,-0.8
2023-01-26T04:21:27.073Z,-0.8
2023-01-26T04:22:53.507Z,-0.7
2023-01-26T04:23:27.040Z,-0.7
2023-01-26T04:24:27.239Z,-0.8
2023-01-26T04:25:52.256Z,-0.7
2023-01-26T04:26:27.164Z,-0.7
2023-01-26T04:27:27.196Z,-0.7
2023-01-26T04:28:50.407Z,-0.8
2023-01-26T04:29:27.324Z,-0.8
2023-01-26T04:31:23.932Z,-0.8
2023-01-26T04:31:30.737Z,-0.7
2023-01-26T04:32:27.529Z,-0.6
2023-01-26T04:33:27.603Z,-0.5
2023-01-26T04:34:27.639Z,-0.6
2023-01-26T04:35:27.712Z,-0.6
2023-01-26T04:36:27.718Z,-0.7
2023-01-26T04:37:37.944Z,-0.7
2023-01-26T04:38:27.819Z,-0.7
2023-01-26T04:39:37.091Z,-0.7
2023-01-26T04:40:47.778Z,-0.6
2023-01-26T04:41:28.174Z,-0.7
2023-01-26T04:42:28.060Z,-0.8
2023-01-26T04:44:03.966Z,-0.7
2023-01-26T04:44:28.149Z,-0.6
2023-01-26T04:45:37.740Z,-0.7
2023-01-26T04:46:51.706Z,-0.7
2023-01-26T04:47:37.551Z,-0.8
2023-01-26T04:48:28.361Z,-0.8
2023-01-26T04:50:00.705Z,-0.8
2023-01-26T04:50:28.488Z,-0.8
2023-01-26T04:51:44.214Z,-0.7
2023-01-26T04:52:47.846Z,-0.7
2023-01-26T04:53:39.962Z,-0.7
2023-01-26T04:54:28.685Z,-0.7
2023-01-26T04:56:02.631Z,-0.8
2023-01-26T04:56:28.821Z,-0.7
2023-01-26T04:57:39.911Z,-0.6
2023-01-26T04:58:46.200Z,-0.7
2023-01-26T04:59:41.632Z,-0.8
2023-01-26T05:00:28.986Z,-0.7
2023-01-26T05:01:33.114Z,-0.7
2023-01-26T05:02:29.151Z,-0.7
2023-01-26T05:03:41.523Z,-0.7
2023-01-26T05:04:47.194Z,-0.7
2023-01-26T05:05:41.704Z,-0.6
2023-01-26T05:06:29.412Z,-0.6
2023-01-26T05:07:47.053Z,-0.6
2023-01-26T05:08:29.539Z,-0.7
2023-01-26T05:09:29.569Z,-0.6
2023-01-26T05:10:48.514Z,-0.6
2023-01-26T05:11:29.680Z,-0.5
2023-01-26T05:12:29.735Z,-0.6
2023-01-26T05:13:46.258Z,-0.5
2023-01-26T05:14:30.121Z,-0.7
2023-01-26T05:15:29.916Z,-0.8
2023-01-26T05:16:47.073Z,-0.7
2023-01-26T05:17:30.029Z,-0.7
2023-01-26T05:18:30.072Z,-0.6
2023-01-26T05:19:45.884Z,-0.7
2023-01-26T05:20:30.207Z,-0.7
2023-01-26T05:21:31.198Z,-0.7
2023-01-26T05:22:48.844Z,-0.6
2023-01-26T05:23:30.405Z,-0.6
2023-01-26T05:24:30.692Z,-0.6
2023-01-26T05:25:45.983Z,-0.6
2023-01-26T05:26:30.535Z,-0.7
2023-01-26T05:27:30.593Z,-0.6
2023-01-26T05:28:46.401Z,-0.7
2023-01-26T05:29:30.696Z,-0.8
2023-01-26T05:30:30.807Z,-0.8
2023-01-26T05:31:30.839Z,-0.8
2023-01-26T05:32:30.903Z,-0.9
2023-01-26T05:33:30.942Z,-0.8
2023-01-26T05:34:31.010Z,-0.8
2023-01-26T05:35:31.134Z,-0.8
2023-01-26T05:36:31.171Z,-0.8
2023-01-26T05:37:31.399Z,-0.9
2023-01-26T05:38:31.248Z,-0.8
2023-01-26T05:39:31.342Z,-0.6
2023-01-26T05:40:31.382Z,-0.7
2023-01-26T05:41:31.475Z,-0.8
2023-01-26T05:42:31.477Z,-0.9
2023-01-26T05:43:31.527Z,-0.9
2023-01-26T05:44:31.594Z,-0.8
2023-01-26T05:45:31.657Z,-0.8
2023-01-26T05:46:31.710Z,-0.9
2023-01-26T05:47:31.788Z,-0.9
2023-01-26T05:48:31.833Z,-0.9
2023-01-26T05:49:31.901Z,-0.9
2023-01-26T05:50:32.015Z,-0.9
2023-01-26T05:51:32.077Z,-0.9
2023-01-26T05:52:32.075Z,-0.8
2023-01-26T05:53:32.173Z,-0.8
2023-01-26T05:54:32.234Z,-0.7
2023-01-26T05:55:32.262Z,-0.7
2023-01-26T05:56:32.300Z,-0.8
2023-01-26T05:57:32.322Z,-0.9
2023-01-26T05:58:32.418Z,-0.8
2023-01-26T05:59:32.457Z,-0.9
2023-01-26T06:00:32.579Z,-0.9
2023-01-26T06:01:32.617Z,-0.9
2023-01-26T06:02:32.681Z,-0.9
2023-01-26T06:03:32.691Z,-0.8
2023-01-26T06:04:48.634Z,-0.9
2023-01-26T06:05:32.870Z,-0.9
2023-01-26T06:06:32.918Z,-0.9
2023-01-26T06:07:50.469Z,-0.9
2023-01-26T06:08:33.139Z,-0.9
2023-01-26T06:09:33.095Z,-0.9
2023-01-26T06:10:49.190Z,-0.9
2023-01-26T06:11:33.203Z,-0.9
2023-01-26T06:12:33.235Z,-1
2023-01-26T06:13:46.106Z,-1
2023-01-26T06:14:33.346Z,-1
2023-01-26T06:15:33.411Z,-0.9
2023-01-26T06:16:48.298Z,-1
2023-01-26T06:17:33.509Z,-1
2023-01-26T06:18:33.565Z,-0.9
2023-01-26T06:19:45.745Z,-1
2023-01-26T06:20:36.326Z,-1
2023-01-26T06:21:37.331Z,-1
2023-01-26T06:22:48.925Z,-0.9
2023-01-26T06:23:33.845Z,-1.1
2023-01-26T06:24:33.887Z,-1.1
2023-01-26T06:25:47.231Z,-1
2023-01-26T06:26:34.006Z,-0.9
2023-01-26T06:27:34.043Z,-0.9
2023-01-26T06:28:48.510Z,-1
2023-01-26T06:29:34.146Z,-0.9
2023-01-26T06:30:34.259Z,-0.7
2023-01-26T06:31:41.763Z,-0.8
2023-01-26T06:32:34.346Z,-0.8
2023-01-26T06:33:34.430Z,-0.9
2023-01-26T06:34:59.632Z,-0.8
2023-01-26T06:35:34.526Z,-0.8
2023-01-26T06:36:34.593Z,-0.8
2023-01-26T06:38:00.917Z,-0.8
2023-01-26T06:38:34.738Z,-0.7
2023-01-26T06:39:34.769Z,-0.8
2023-01-26T06:40:57.107Z,-0.8
2023-01-26T06:41:34.866Z,-0.8
2023-01-26T06:42:34.932Z,-0.9
2023-01-26T06:43:56.241Z,-0.9
2023-01-26T06:44:35.076Z,-0.8
2023-01-26T06:45:35.194Z,-0.9
2023-01-26T06:46:57.219Z,-0.9
2023-01-26T06:47:36.044Z,-0.8
2023-01-26T06:48:35.305Z,-1
2023-01-26T06:49:47.259Z,-1
2023-01-26T06:50:35.416Z,-0.9
2023-01-26T06:51:35.451Z,-0.9
2023-01-26T06:52:56.922Z,-0.9
2023-01-26T06:53:35.590Z,-0.8
2023-01-26T06:54:35.602Z,-0.9
2023-01-26T06:55:57.533Z,-0.9
2023-01-26T06:56:35.801Z,-0.9
2023-01-26T06:57:35.808Z,-0.7
2023-01-26T06:58:57.309Z,-0.6
2023-01-26T06:59:37.619Z,-0.7
2023-01-26T07:00:35.979Z,-0.8
2023-01-26T07:01:57.802Z,-0.8
2023-01-26T07:02:36.133Z,-0.8
2023-01-26T07:03:36.138Z,-0.8
2023-01-26T07:04:56.469Z,-0.8
2023-01-26T07:05:36.243Z,-0.8
2023-01-26T07:06:36.313Z,-0.8
2023-01-26T07:07:58.998Z,-0.8
2023-01-26T07:08:36.434Z,-0.7
2023-01-26T07:09:36.481Z,-0.8
2023-01-26T07:10:58.810Z,-0.7
2023-01-26T07:11:36.666Z,-0.8
2023-01-26T07:12:36.697Z,-0.8
2023-01-26T07:13:56.938Z,-0.8
2023-01-26T07:14:36.786Z,-0.8
2023-01-26T07:15:36.861Z,-0.7
2023-01-26T07:16:57.260Z,-0.7
2023-01-26T07:17:36.940Z,-0.8
2023-01-26T07:18:36.986Z,-0.9
2023-01-26T07:19:58.000Z,-0.8
2023-01-26T07:20:37.127Z,-0.9
2023-01-26T07:21:37.173Z,-0.9
2023-01-26T07:23:00.400Z,-0.8
2023-01-26T07:23:37.313Z,-0.8
2023-01-26T07:24:37.341Z,-0.8
2023-01-26T07:25:57.732Z,-0.8
2023-01-26T07:26:37.462Z,-0.7
2023-01-26T07:27:37.530Z,-0.7
2023-01-26T07:29:00.782Z,-0.7
2023-01-26T07:29:37.653Z,-0.8
2023-01-26T07:30:37.703Z,-0.9
2023-01-26T07:31:42.382Z,-0.8
2023-01-26T07:32:37.823Z,-0.8
2023-01-26T07:33:37.859Z,-0.8
2023-01-26T07:34:54.985Z,-0.7
2023-01-26T07:35:38.009Z,-0.6
2023-01-26T07:36:38.081Z,-0.7
2023-01-26T07:38:01.249Z,-0.6
2023-01-26T07:38:38.215Z,-0.5
2023-01-26T07:39:38.251Z,-0.4
2023-01-26T07:40:56.004Z,-0.4
2023-01-26T07:41:38.478Z,-0.4
2023-01-26T07:42:38.407Z,-0.3
2023-01-26T07:43:58.707Z,-0.5
2023-01-26T07:44:38.560Z,-0.6
2023-01-26T07:45:38.602Z,-0.6
2023-01-26T07:46:58.189Z,-0.7
2023-01-26T07:47:38.704Z,-0.8
2023-01-26T07:48:38.778Z,-0.8
2023-01-26T07:49:52.571Z,-0.8
2023-01-26T07:50:38.943Z,-0.8
2023-01-26T07:51:39.021Z,-0.8
2023-01-26T07:52:56.358Z,-0.7
2023-01-26T07:53:39.058Z,-0.6
2023-01-26T07:54:39.114Z,-0.6
2023-01-26T07:56:03.223Z,-0.6
2023-01-26T07:56:39.272Z,-0.6
2023-01-26T07:57:39.303Z,-0.5
2023-01-26T07:59:02.866Z,-0.5
2023-01-26T07:59:39.398Z,-0.6
2023-01-26T08:00:39.469Z,-0.6
2023-01-26T08:02:02.911Z,-0.6
2023-01-26T08:02:39.616Z,-0.6
2023-01-26T08:03:39.695Z,-0.6
2023-01-26T08:04:57.972Z,-0.5
2023-01-26T08:05:39.747Z,-0.7
2023-01-26T08:06:39.829Z,-0.7
2023-01-26T08:08:00.712Z,-0.8
2023-01-26T08:08:39.975Z,-0.7
2023-01-26T08:09:40.059Z,-0.7
2023-01-26T08:10:58.157Z,-0.6
2023-01-26T08:11:40.133Z,-0.5
2023-01-26T08:12:41.308Z,-0.5
2023-01-26T08:14:04.130Z,-0.5
2023-01-26T08:14:46.664Z,-0.6
2023-01-26T08:15:40.388Z,-0.5
2023-01-26T08:16:59.541Z,-0.5
2023-01-26T08:17:40.531Z,-0.4
2023-01-26T08:18:40.539Z,-0.5
2023-01-26T08:20:03.752Z,-0.5
2023-01-26T08:20:40.644Z,-0.4
2023-01-26T08:21:40.675Z,-0.3
2023-01-26T08:22:47.764Z,-0.4
2023-01-26T08:23:40.929Z,-0.5
2023-01-26T08:24:40.874Z,-0.5
2023-01-26T08:26:06.079Z,-0.6
2023-01-26T08:26:40.973Z,-0.4
2023-01-26T08:27:41.051Z,-0.3
2023-01-26T08:29:01.846Z,-0.3
2023-01-26T08:29:41.133Z,-0.4
2023-01-26T08:30:41.213Z,-0.5
2023-01-26T08:32:08.871Z,-0.5
2023-01-26T08:32:41.312Z,-0.5
2023-01-26T08:33:41.350Z,-0.5
2023-01-26T08:35:01.905Z,-0.5
2023-01-26T08:35:41.494Z,-0.6
2023-01-26T08:36:41.516Z,-0.6
2023-01-26T08:38:06.155Z,-0.5
2023-01-26T08:38:41.682Z,-0.6
2023-01-26T08:39:41.679Z,-0.6
2023-01-26T08:41:00.237Z,-0.6
2023-01-26T08:41:41.795Z,-0.6
2023-01-26T08:42:41.832Z,-0.6
2023-01-26T08:44:04.204Z,-0.6
2023-01-26T08:44:41.962Z,-0.5
2023-01-26T08:45:42.098Z,-0.6
2023-01-26T08:47:02.676Z,-0.5
2023-01-26T08:47:42.175Z,-0.5
2023-01-26T08:48:42.202Z,-0.5
2023-01-26T08:50:03.510Z,-0.4
2023-01-26T08:50:42.332Z,-0.6
2023-01-26T08:51:42.421Z,-0.5
2023-01-26T08:53:01.840Z,-0.4
2023-01-26T08:53:42.548Z,-0.3
2023-01-26T08:54:42.584Z,-0.4
2023-01-26T08:56:08.546Z,-0.4
2023-01-26T08:56:42.705Z,-0.4
2023-01-26T08:57:42.717Z,-0.4
2023-01-26T08:58:59.941Z,-0.3
2023-01-26T08:59:42.854Z,-0.4
2023-01-26T09:00:42.932Z,-0.5
2023-01-26T09:02:06.440Z,-0.5
2023-01-26T09:02:43.117Z,-0.5
2023-01-26T09:03:43.134Z,-0.4
2023-01-26T09:05:01.850Z,-0.4
2023-01-26T09:05:43.219Z,-0.5
2023-01-26T09:06:43.269Z,-0.5
2023-01-26T09:08:07.940Z,-0.4
2023-01-26T09:08:43.410Z,-0.4
2023-01-26T09:09:43.451Z,-0.3
2023-01-26T09:11:01.587Z,-0.3
2023-01-26T09:11:43.541Z,-0.3
2023-01-26T09:12:43.581Z,-0.4
2023-01-26T09:14:04.342Z,-0.2
2023-01-26T09:14:43.684Z,-0.1
2023-01-26T09:15:43.720Z,-0.2
2023-01-26T09:17:01.087Z,-0.3
2023-01-26T09:17:43.883Z,-0.4
2023-01-26T09:18:43.942Z,-0.3
2023-01-26T09:20:04.510Z,-0.3
2023-01-26T09:20:44.024Z,-0.2
2023-01-26T09:21:44.079Z,-0.3
2023-01-26T09:23:01.878Z,-0.4
2023-01-26T09:23:44.213Z,-0.4
2023-01-26T09:24:44.225Z,-0.4
2023-01-26T09:26:04.485Z,-0.4
2023-01-26T09:26:44.352Z,-0.5
2023-01-26T09:27:44.401Z,-0.5
2023-01-26T09:29:01.410Z,-0.5
2023-01-26T09:29:44.544Z,-0.5
2023-01-26T09:30:44.654Z,-0.5
2023-01-26T09:32:11.502Z,-0.4
2023-01-26T09:32:44.715Z,-0.4
2023-01-26T09:33:45.404Z,-0.5
2023-01-26T09:35:01.195Z,-0.5
2023-01-26T09:35:45.095Z,-0.5
2023-01-26T09:36:45.069Z,-0.4
2023-01-26T09:38:01.112Z,-0.4
2023-01-26T09:38:45.303Z,-0.4
2023-01-26T09:39:45.209Z,-0.3
2023-01-26T09:41:04.526Z,-0.2
2023-01-26T09:41:45.342Z,0.2
2023-01-26T09:42:45.468Z,3
2023-01-26T09:44:02.717Z,4.5
2023-01-26T09:44:45.487Z,5.3
2023-01-26T09:45:45.749Z,5.6
2023-01-26T09:47:01.838Z,5.8
2023-01-26T09:47:45.679Z,6.1
2023-01-26T09:48:45.685Z,4.4
2023-01-26T09:50:04.300Z,2.5
2023-01-26T09:50:45.757Z,1.6
2023-01-26T09:51:45.850Z,1
2023-01-26T09:53:05.495Z,0.6
2023-01-26T09:53:45.973Z,0.3
2023-01-26T09:54:46.013Z,0
2023-01-26T09:56:08.308Z,0
2023-01-26T09:56:46.137Z,-0.1
2023-01-26T09:57:46.152Z,0
2023-01-26T09:59:04.609Z,0
2023-01-26T09:59:46.250Z,-0.1
2023-01-26T10:00:46.326Z,0
2023-01-26T10:02:10.932Z,0.3
2023-01-26T10:02:46.506Z,0.1
2023-01-26T10:03:46.484Z,0
2023-01-26T10:05:17.059Z,0
2023-01-26T10:05:46.688Z,-0.2
2023-01-26T10:06:46.705Z,0
2023-01-26T10:08:20.867Z,0
2023-01-26T10:08:53.291Z,0
2023-01-26T10:09:46.915Z,0
2023-01-26T10:10:55.419Z,0
2023-01-26T10:11:57.540Z,0
2023-01-26T10:12:54.860Z,0
2023-01-26T10:14:32.852Z,-0.1
2023-01-26T10:15:01.170Z,-0.2
2023-01-26T10:15:47.305Z,-0.2
2023-01-26T10:16:57.026Z,-0.2
2023-01-26T10:18:08.913Z,-0.3
2023-01-26T10:19:10.907Z,-0.5
2023-01-26T10:19:47.504Z,-0.4
2023-01-26T10:21:56.785Z,-0.3
2023-01-26T10:22:47.622Z,-0.2
2023-01-26T10:23:47.906Z,-0.1
2023-01-26T10:24:49.636Z,-0.2
2023-01-26T10:25:50.198Z,-0.1
2023-01-26T10:26:47.812Z,-0.2
2023-01-26T10:27:50.436Z,-0.1
2023-01-26T10:28:47.986Z,-0.1
2023-01-26T10:29:49.742Z,-0.3
2023-01-26T10:30:48.170Z,-0.3
2023-01-26T10:32:20.412Z,-0.2
2023-01-26T10:32:48.197Z,-0.3
2023-01-26T10:33:49.893Z,-0.3
2023-01-26T10:34:48.328Z,-0.1
2023-01-26T10:35:51.335Z,-0.1
2023-01-26T10:36:48.422Z,-0.1
2023-01-26T10:37:48.488Z,-0.1
2023-01-26T10:38:48.577Z,-0.1
2023-01-26T10:39:50.903Z,-0.2
2023-01-26T10:40:50.616Z,-0.1
2023-01-26T10:41:59.511Z,0
2023-01-26T10:42:48.750Z,-0.1
2023-01-26T10:43:52.689Z,-0.1
2023-01-26T10:44:48.834Z,-0.2
2023-01-26T10:45:53.266Z,-0.3
2023-01-26T10:46:54.562Z,-0.2
2023-01-26T10:47:52.930Z,-0.2
2023-01-26T10:48:52.440Z,-0.2
2023-01-26T10:49:52.835Z,-0.1
2023-01-26T10:50:50.845Z,-0.1
2023-01-26T10:51:59.282Z,0
2023-01-26T10:53:01.992Z,0
2023-01-26T10:53:49.332Z,0.1
2023-01-26T10:54:56.704Z,0
2023-01-26T10:55:49.429Z,0
2023-01-26T10:56:57.023Z,-0.1
2023-01-26T10:57:49.603Z,-0.2
2023-01-26T10:58:58.775Z,-0.2
2023-01-26T10:59:49.748Z,-0.2
2023-01-26T11:00:58.756Z,-0.2
2023-01-26T11:01:57.817Z,-0.2
2023-01-26T11:02:58.724Z,-0.2
2023-01-26T11:03:49.950Z,-0.2
2023-01-26T11:05:01.205Z,-0.3
2023-01-26T11:05:50.080Z,-0.2
2023-01-26T11:06:59.918Z,-0.3
2023-01-26T11:07:50.161Z,-0.1
2023-01-26T11:08:58.234Z,-0.1
2023-01-26T11:09:51.159Z,-0.2
2023-01-26T11:10:59.890Z,-0.2
2023-01-26T11:12:01.318Z,-0.3
2023-01-26T11:13:01.274Z,-0.2
2023-01-26T11:13:50.530Z,-0.2
2023-01-26T11:14:59.761Z,-0.2
2023-01-26T11:15:55.613Z,-0.1
2023-01-26T11:16:59.347Z,-0.1
2023-01-26T11:17:50.767Z,-0.1
2023-01-26T11:19:00.076Z,-0.1
2023-01-26T11:19:50.879Z,-0.1
2023-01-26T11:21:00.364Z,-0.1
2023-01-26T11:22:08.003Z,-0.2
2023-01-26T11:23:13.600Z,-0.1
2023-01-26T11:23:51.182Z,-0.1
2023-01-26T11:25:10.592Z,-0.1
2023-01-26T11:25:51.178Z,-0.1
2023-01-26T11:27:09.918Z,0
2023-01-26T11:27:51.269Z,0
2023-01-26T11:29:10.521Z,-0.2
2023-01-26T11:29:51.390Z,-0.2
2023-01-26T11:31:10.399Z,-0.1
2023-01-26T11:31:59.977Z,0
2023-01-26T11:33:09.919Z,0
2023-01-26T11:33:51.726Z,0.1
2023-01-26T11:35:11.799Z,0
2023-01-26T11:35:51.802Z,-0.1
2023-01-26T11:37:09.995Z,0
2023-01-26T11:37:53.859Z,0.1
2023-01-26T11:39:11.527Z,0.1
2023-01-26T11:39:51.959Z,0.1
2023-01-26T11:41:10.097Z,0
2023-01-26T11:42:00.151Z,0.1
2023-01-26T11:43:10.035Z,0.1
2023-01-26T11:43:52.189Z,0.1
2023-01-26T11:45:09.820Z,0.1
2023-01-26T11:45:52.322Z,0
2023-01-26T11:47:09.579Z,-0.1
2023-01-26T11:47:52.415Z,0
2023-01-26T11:49:11.020Z,-0.1
2023-01-26T11:49:52.550Z,0
2023-01-26T11:51:10.851Z,0.1
2023-01-26T11:51:58.393Z,0.2
2023-01-26T11:53:11.513Z,0.3
2023-01-26T11:53:52.760Z,0.3
2023-01-26T11:55:10.305Z,0.3
2023-01-26T11:55:52.848Z,0.2
2023-01-26T11:57:09.798Z,0.2
2023-01-26T11:57:52.996Z,0.2
2023-01-26T11:59:10.414Z,0.3
2023-01-26T11:59:53.119Z,0.2
2023-01-26T12:01:11.549Z,0.2
2023-01-26T12:01:55.995Z,0.3
2023-01-26T12:03:11.708Z,0.2
2023-01-26T12:03:53.336Z,0.1
2023-01-26T12:05:11.232Z,0.1
2023-01-26T12:05:53.422Z,0.2
2023-01-26T12:07:10.299Z,0.2
2023-01-26T12:07:53.521Z,0.2
2023-01-26T12:09:11.904Z,0.1
2023-01-26T12:09:53.619Z,0.2
2023-01-26T12:11:09.785Z,0.2
2023-01-26T12:12:01.784Z,0.2
2023-01-26T12:13:10.544Z,0.2
2023-01-26T12:13:53.846Z,0.2
2023-01-26T12:15:11.932Z,0.2
2023-01-26T12:15:53.926Z,0.2
2023-01-26T12:17:17.939Z,0.2
2023-01-26T12:17:54.010Z,0.3
2023-01-26T12:19:11.839Z,0.3
2023-01-26T12:19:54.212Z,0.3
2023-01-26T12:21:09.964Z,0.3
2023-01-26T12:21:58.644Z,0.3
2023-01-26T12:23:11.517Z,0.4
2023-01-26T12:23:54.454Z,0.3
2023-01-26T12:25:19.273Z,0.2
2023-01-26T12:25:54.598Z,0.1
2023-01-26T12:27:10.874Z,0.1
2023-01-26T12:27:54.651Z,0.1
2023-01-26T12:29:11.201Z,0.2
2023-01-26T12:29:54.734Z,0.2
2023-01-26T12:31:13.249Z,0.3
2023-01-26T12:31:56.217Z,0.2
2023-01-26T12:33:12.400Z,0.1
2023-01-26T12:33:54.979Z,0.2
2023-01-26T12:35:14.414Z,0.2
2023-01-26T12:35:55.067Z,0.2
2023-01-26T12:37:13.299Z,0.2
2023-01-26T12:37:57.580Z,0.2
2023-01-26T12:39:13.143Z,0.2
2023-01-26T12:39:55.293Z,0.1
2023-01-26T12:41:11.243Z,0.1
2023-01-26T12:41:57.848Z,0.1
2023-01-26T12:43:12.816Z,0.1
2023-01-26T12:43:55.537Z,0.1
2023-01-26T12:45:13.769Z,0.1
2023-01-26T12:45:55.662Z,0.1
2023-01-26T12:47:14.215Z,0.1
2023-01-26T12:47:55.732Z,0.2
2023-01-26T12:49:13.525Z,0.3
2023-01-26T12:49:56.014Z,0.3
2023-01-26T12:51:13.667Z,0.2
2023-01-26T12:51:59.266Z,0.3
2023-01-26T12:53:14.162Z,0.3
2023-01-26T12:53:56.089Z,0.3
2023-01-26T12:55:13.150Z,0.3
2023-01-26T12:55:56.214Z,0.3
2023-01-26T12:57:12.735Z,0.3
2023-01-26T12:58:01.679Z,0.3
2023-01-26T12:59:02.955Z,0.3
2023-01-26T12:59:56.434Z,0.3
2023-01-26T13:01:17.408Z,0.3
2023-01-26T13:02:01.396Z,0.2
2023-01-26T13:03:18.743Z,0.3
2023-01-26T13:03:56.622Z,0.3
2023-01-26T13:05:17.190Z,0.4
2023-01-26T13:05:56.720Z,0.3
2023-01-26T13:07:17.863Z,0.2
2023-01-26T13:07:56.874Z,0.2
2023-01-26T13:09:18.086Z,0.2
2023-01-26T13:09:56.949Z,0.3
2023-01-26T13:11:18.795Z,0.3
2023-01-26T13:12:02.339Z,0.3
2023-01-26T13:13:16.875Z,0.4
2023-01-26T13:13:57.525Z,0.3
2023-01-26T13:15:18.342Z,0.2
2023-01-26T13:15:57.372Z,0.3
2023-01-26T13:17:19.054Z,0.3
2023-01-26T13:17:57.424Z,0.3
2023-01-26T13:19:18.897Z,0.3
2023-01-26T13:19:57.552Z,0.3
2023-01-26T13:21:18.466Z,0.3
2023-01-26T13:22:04.927Z,0.3
2023-01-26T13:23:18.806Z,0.3
2023-01-26T13:23:57.858Z,0.4
2023-01-26T13:25:20.028Z,0.4
2023-01-26T13:26:09.384Z,0.3
2023-01-26T13:27:18.996Z,0.3
2023-01-26T13:27:58.002Z,0.4
2023-01-26T13:29:19.469Z,0.4
2023-01-26T13:29:58.080Z,0.3
2023-01-26T13:31:18.466Z,0.4